Kezdőlap
METAR-TAF:

METAR-TAF

Repülőterek :

Eureka, Nunavut, Kanada

földrajzi szélesség: 79-59N, földrajzi hosszúság: 085-56W, magasság: 10 m

Jelenlegi meteorológiai megfigyelések

A jelentés 2 órával és 52 perccel ezelõtt készült, 03:00 UTC
Kelet-délkeleti szél 9 kt
Hőmérséklet -3°C
Páratartalom 86%
Légköri nyomás 1032 hPa
Látótávolság: 24.1 km
Kevés felhő 1100 lábon
Szakadozott felhőzet 3000 lábon
Szakadozott felhőzet 22000 lábon

METAR: CWEU 190300Z 12009KT 15SM FEW011 BKN030 BKN220 M03/M05 A3047 RMK ST1SC6CI1 ST TR LAST STFD OBS/NEXT 190600Z SLP331

Idő: 00:52 (05:52 UTC)


TAF: hiányzik

Meteorológiai megfigyelések és előrejelzések több, mint 4000 repülőtéren (METAR és TAF jelentéseket).

A térképen piros és sárga pontok jelzik az elérhető meteorológiai állomásokat.

Mozgassa az egeret a pont fölött, hogy megjelenjen az állomás neve.

Azután kattintson az időjárási megfigyelések és előrejelzések megtekintéséhez.

A térkép megváltoztatása: kattintson a fekete keresztel jelölt zöld gombra ráközelítéshez, a vonallal jelölt zöld gombra távolításhoz, vagy a zöld nyilakra a szomszédos térképek eléréséhez.


METAR-TAF: